sensor_id;sensor_type;location;lat;lon;timestamp;temperature;humidity
4826;DHT22;2427;50.934;6.776;2023-02-01T00:02:04;5.80;1.00
4826;DHT22;2427;50.934;6.776;2023-02-01T00:04:30;5.70;1.00
4826;DHT22;2427;50.934;6.776;2023-02-01T00:06:56;5.70;1.00
4826;DHT22;2427;50.934;6.776;2023-02-01T00:09:21;5.60;1.00
4826;DHT22;2427;50.934;6.776;2023-02-01T00:11:47;5.60;1.00
4826;DHT22;2427;50.934;6.776;2023-02-01T00:14:12;5.60;1.00
4826;DHT22;2427;50.934;6.776;2023-02-01T00:16:38;5.60;1.00
4826;DHT22;2427;50.934;6.776;2023-02-01T00:19:07;5.70;1.00
4826;DHT22;2427;50.934;6.776;2023-02-01T00:21:34;5.60;1.00
4826;DHT22;2427;50.934;6.776;2023-02-01T00:24:00;5.60;1.00
4826;DHT22;2427;50.934;6.776;2023-02-01T00:26:31;5.60;1.00
4826;DHT22;2427;50.934;6.776;2023-02-01T00:28:57;5.60;1.00
4826;DHT22;2427;50.934;6.776;2023-02-01T00:31:22;5.60;1.00
4826;DHT22;2427;50.934;6.776;2023-02-01T00:33:48;5.70;1.00
4826;DHT22;2427;50.934;6.776;2023-02-01T00:36:14;5.80;99.90
4826;DHT22;2427;50.934;6.776;2023-02-01T00:38:40;5.70;99.90
4826;DHT22;2427;50.934;6.776;2023-02-01T00:41:10;5.80;99.90
4826;DHT22;2427;50.934;6.776;2023-02-01T00:43:36;5.80;99.90
4826;DHT22;2427;50.934;6.776;2023-02-01T00:46:02;5.90;99.90
4826;DHT22;2427;50.934;6.776;2023-02-01T00:48:28;5.90;30.90
4826;DHT22;2427;50.934;6.776;2023-02-01T00:50:53;5.90;1.00
4826;DHT22;2427;50.934;6.776;2023-02-01T00:53:19;5.90;1.00
4826;DHT22;2427;50.934;6.776;2023-02-01T00:55:46;5.90;1.00
4826;DHT22;2427;50.934;6.776;2023-02-01T00:58:12;5.90;1.00
4826;DHT22;2427;50.934;6.776;2023-02-01T01:00:37;5.90;1.00
4826;DHT22;2427;50.934;6.776;2023-02-01T01:03:03;5.90;1.00
4826;DHT22;2427;50.934;6.776;2023-02-01T01:05:46;5.90;1.00
4826;DHT22;2427;50.934;6.776;2023-02-01T01:08:12;5.90;1.00
4826;DHT22;2427;50.934;6.776;2023-02-01T01:10:38;5.90;1.00
4826;DHT22;2427;50.934;6.776;2023-02-01T01:13:04;5.90;99.90
4826;DHT22;2427;50.934;6.776;2023-02-01T01:15:29;5.90;99.90
4826;DHT22;2427;50.934;6.776;2023-02-01T01:17:55;5.90;99.90
4826;DHT22;2427;50.934;6.776;2023-02-01T01:20:21;5.80;99.90
4826;DHT22;2427;50.934;6.776;2023-02-01T01:22:49;5.80;1.00
4826;DHT22;2427;50.934;6.776;2023-02-01T01:25:15;5.80;1.00
4826;DHT22;2427;50.934;6.776;2023-02-01T01:27:40;5.80;1.00
4826;DHT22;2427;50.934;6.776;2023-02-01T01:30:06;5.80;1.00
4826;DHT22;2427;50.934;6.776;2023-02-01T01:32:32;5.70;1.00
4826;DHT22;2427;50.934;6.776;2023-02-01T01:34:58;5.80;1.00
4826;DHT22;2427;50.934;6.776;2023-02-01T01:37:24;5.80;99.90
4826;DHT22;2427;50.934;6.776;2023-02-01T01:39:49;5.70;99.90
4826;DHT22;2427;50.934;6.776;2023-02-01T01:42:15;5.70;1.00
4826;DHT22;2427;50.934;6.776;2023-02-01T01:47:54;5.70;99.90
4826;DHT22;2427;50.934;6.776;2023-02-01T01:50:27;5.60;99.90
4826;DHT22;2427;50.934;6.776;2023-02-01T01:52:55;5.50;99.90
4826;DHT22;2427;50.934;6.776;2023-02-01T01:55:24;5.50;99.90
4826;DHT22;2427;50.934;6.776;2023-02-01T01:58:08;5.50;99.90
4826;DHT22;2427;50.934;6.776;2023-02-01T02:10:56;5.50;1.00
4826;DHT22;2427;50.934;6.776;2023-02-01T02:13:31;5.50;1.00
4826;DHT22;2427;50.934;6.776;2023-02-01T02:16:05;5.60;1.00
4826;DHT22;2427;50.934;6.776;2023-02-01T02:38:44;5.70;1.00
4826;DHT22;2427;50.934;6.776;2023-02-01T02:41:19;5.70;1.00
4826;DHT22;2427;50.934;6.776;2023-02-01T02:47:26;5.70;1.00
4826;DHT22;2427;50.934;6.776;2023-02-01T02:53:15;5.70;1.00
4826;DHT22;2427;50.934;6.776;2023-02-01T02:56:01;5.70;1.00
4826;DHT22;2427;50.934;6.776;2023-02-01T02:58:47;5.80;1.00
4826;DHT22;2427;50.934;6.776;2023-02-01T03:01:32;5.80;1.00
4826;DHT22;2427;50.934;6.776;2023-02-01T03:04:17;5.70;1.00
4826;DHT22;2427;50.934;6.776;2023-02-01T03:06:44;5.70;1.00
4826;DHT22;2427;50.934;6.776;2023-02-01T03:09:27;5.70;1.00
4826;DHT22;2427;50.934;6.776;2023-02-01T03:12:01;5.70;1.00
4826;DHT22;2427;50.934;6.776;2023-02-01T03:14:47;5.70;1.00
4826;DHT22;2427;50.934;6.776;2023-02-01T03:17:21;5.80;1.00
4826;DHT22;2427;50.934;6.776;2023-02-01T03:19:50;5.80;1.00
4826;DHT22;2427;50.934;6.776;2023-02-01T03:22:20;5.80;1.00
4826;DHT22;2427;50.934;6.776;2023-02-01T03:24:57;5.80;1.00
4826;DHT22;2427;50.934;6.776;2023-02-01T03:27:34;5.80;1.00
4826;DHT22;2427;50.934;6.776;2023-02-01T03:30:18;5.80;1.00
4826;DHT22;2427;50.934;6.776;2023-02-01T03:32:47;5.80;1.00
4826;DHT22;2427;50.934;6.776;2023-02-01T03:40:49;6.00;99.90
4826;DHT22;2427;50.934;6.776;2023-02-01T03:43:18;5.90;99.90
4826;DHT22;2427;50.934;6.776;2023-02-01T03:45:49;5.90;99.90
4826;DHT22;2427;50.934;6.776;2023-02-01T03:48:17;5.80;99.90
4826;DHT22;2427;50.934;6.776;2023-02-01T03:50:48;5.80;99.90
4826;DHT22;2427;50.934;6.776;2023-02-01T03:53:17;5.80;99.90
4826;DHT22;2427;50.934;6.776;2023-02-01T03:55:44;5.70;99.90
4826;DHT22;2427;50.934;6.776;2023-02-01T03:58:16;5.70;99.90
4826;DHT22;2427;50.934;6.776;2023-02-01T04:00:56;5.60;99.90
4826;DHT22;2427;50.934;6.776;2023-02-01T04:03:22;5.60;99.90
4826;DHT22;2427;50.934;6.776;2023-02-01T04:05:49;5.60;99.90
4826;DHT22;2427;50.934;6.776;2023-02-01T04:08:14;5.60;99.90
4826;DHT22;2427;50.934;6.776;2023-02-01T04:10:40;5.60;99.90
4826;DHT22;2427;50.934;6.776;2023-02-01T04:13:06;5.70;99.90
4826;DHT22;2427;50.934;6.776;2023-02-01T04:15:32;5.70;99.90
4826;DHT22;2427;50.934;6.776;2023-02-01T04:17:57;5.70;99.90
4826;DHT22;2427;50.934;6.776;2023-02-01T04:20:23;5.70;99.90
4826;DHT22;2427;50.934;6.776;2023-02-01T04:22:48;5.70;99.90
4826;DHT22;2427;50.934;6.776;2023-02-01T04:25:14;5.70;99.90
4826;DHT22;2427;50.934;6.776;2023-02-01T04:27:39;5.70;99.90
4826;DHT22;2427;50.934;6.776;2023-02-01T04:30:05;5.70;99.90
4826;DHT22;2427;50.934;6.776;2023-02-01T04:32:35;5.70;99.90
4826;DHT22;2427;50.934;6.776;2023-02-01T04:35:01;5.70;99.90
4826;DHT22;2427;50.934;6.776;2023-02-01T04:37:26;5.70;94.90
4826;DHT22;2427;50.934;6.776;2023-02-01T04:39:52;5.70;99.90
4826;DHT22;2427;50.934;6.776;2023-02-01T04:42:17;5.70;99.20
4826;DHT22;2427;50.934;6.776;2023-02-01T04:44:43;5.70;50.10
4826;DHT22;2427;50.934;6.776;2023-02-01T04:47:09;5.70;12.60
4826;DHT22;2427;50.934;6.776;2023-02-01T04:49:34;5.60;1.00
4826;DHT22;2427;50.934;6.776;2023-02-01T04:52:00;5.60;1.00
4826;DHT22;2427;50.934;6.776;2023-02-01T04:54:26;5.60;1.00
4826;DHT22;2427;50.934;6.776;2023-02-01T04:56:51;5.50;1.00
4826;DHT22;2427;50.934;6.776;2023-02-01T04:59:17;5.50;1.00
4826;DHT22;2427;50.934;6.776;2023-02-01T05:01:42;5.50;1.00
4826;DHT22;2427;50.934;6.776;2023-02-01T05:04:08;5.40;60.80
4826;DHT22;2427;50.934;6.776;2023-02-01T05:06:33;5.40;90.70
4826;DHT22;2427;50.934;6.776;2023-02-01T05:08:59;5.40;89.70
4826;DHT22;2427;50.934;6.776;2023-02-01T05:11:24;5.30;21.20
4826;DHT22;2427;50.934;6.776;2023-02-01T05:14:08;5.40;1.00
4826;DHT22;2427;50.934;6.776;2023-02-01T05:16:34;5.30;1.00
4826;DHT22;2427;50.934;6.776;2023-02-01T05:18:59;5.30;4.20
4826;DHT22;2427;50.934;6.776;2023-02-01T05:21:25;5.30;1.00
4826;DHT22;2427;50.934;6.776;2023-02-01T05:23:50;5.30;1.00
4826;DHT22;2427;50.934;6.776;2023-02-01T05:26:35;5.20;1.00
4826;DHT22;2427;50.934;6.776;2023-02-01T05:29:00;5.20;35.40
4826;DHT22;2427;50.934;6.776;2023-02-01T05:31:26;5.20;29.60
4826;DHT22;2427;50.934;6.776;2023-02-01T05:33:53;5.20;1.00
4826;DHT22;2427;50.934;6.776;2023-02-01T05:36:19;5.10;1.00
4826;DHT22;2427;50.934;6.776;2023-02-01T05:38:44;5.10;1.00
4826;DHT22;2427;50.934;6.776;2023-02-01T05:41:10;5.10;1.00
4826;DHT22;2427;50.934;6.776;2023-02-01T05:43:35;5.10;1.00
4826;DHT22;2427;50.934;6.776;2023-02-01T05:46:01;5.10;1.00
4826;DHT22;2427;50.934;6.776;2023-02-01T05:48:29;5.00;1.00
4826;DHT22;2427;50.934;6.776;2023-02-01T05:50:55;5.10;1.00
4826;DHT22;2427;50.934;6.776;2023-02-01T05:53:21;5.10;1.00
4826;DHT22;2427;50.934;6.776;2023-02-01T05:55:46;5.10;1.00
4826;DHT22;2427;50.934;6.776;2023-02-01T05:58:12;5.00;1.00
4826;DHT22;2427;50.934;6.776;2023-02-01T06:00:38;5.10;1.00
4826;DHT22;2427;50.934;6.776;2023-02-01T06:03:04;5.00;1.00
4826;DHT22;2427;50.934;6.776;2023-02-01T06:05:29;5.10;1.00
4826;DHT22;2427;50.934;6.776;2023-02-01T06:07:55;5.10;1.00
4826;DHT22;2427;50.934;6.776;2023-02-01T06:10:21;5.10;1.00
4826;DHT22;2427;50.934;6.776;2023-02-01T06:12:46;5.00;1.00
4826;DHT22;2427;50.934;6.776;2023-02-01T06:15:13;5.00;1.00
4826;DHT22;2427;50.934;6.776;2023-02-01T06:17:41;5.00;1.00
4826;DHT22;2427;50.934;6.776;2023-02-01T06:20:09;4.90;1.00
4826;DHT22;2427;50.934;6.776;2023-02-01T06:22:35;4.90;1.00
4826;DHT22;2427;50.934;6.776;2023-02-01T06:25:02;4.90;1.00
4826;DHT22;2427;50.934;6.776;2023-02-01T06:27:27;4.90;1.00
4826;DHT22;2427;50.934;6.776;2023-02-01T06:29:53;4.90;1.00
4826;DHT22;2427;50.934;6.776;2023-02-01T06:32:20;4.90;1.00
4826;DHT22;2427;50.934;6.776;2023-02-01T06:34:46;4.90;3.80
4826;DHT22;2427;50.934;6.776;2023-02-01T06:37:12;4.80;1.00
4826;DHT22;2427;50.934;6.776;2023-02-01T06:39:38;4.90;1.00
4826;DHT22;2427;50.934;6.776;2023-02-01T06:42:03;4.90;1.00
4826;DHT22;2427;50.934;6.776;2023-02-01T06:44:29;5.00;1.00
4826;DHT22;2427;50.934;6.776;2023-02-01T06:46:55;5.10;1.00
4826;DHT22;2427;50.934;6.776;2023-02-01T06:49:21;5.10;1.00
4826;DHT22;2427;50.934;6.776;2023-02-01T06:51:47;5.10;1.00
4826;DHT22;2427;50.934;6.776;2023-02-01T06:54:12;5.10;1.00
4826;DHT22;2427;50.934;6.776;2023-02-01T06:56:38;5.10;1.00
4826;DHT22;2427;50.934;6.776;2023-02-01T06:59:05;5.20;1.00
4826;DHT22;2427;50.934;6.776;2023-02-01T07:01:31;5.20;1.00
4826;DHT22;2427;50.934;6.776;2023-02-01T07:03:56;5.20;1.00
4826;DHT22;2427;50.934;6.776;2023-02-01T07:06:22;5.10;1.00
4826;DHT22;2427;50.934;6.776;2023-02-01T07:08:48;5.10;1.00
4826;DHT22;2427;50.934;6.776;2023-02-01T07:11:15;5.20;1.00
4826;DHT22;2427;50.934;6.776;2023-02-01T07:13:41;5.20;1.00
4826;DHT22;2427;50.934;6.776;2023-02-01T07:16:11;5.20;1.00
4826;DHT22;2427;50.934;6.776;2023-02-01T07:18:37;5.20;1.00
4826;DHT22;2427;50.934;6.776;2023-02-01T07:21:03;5.20;1.00
4826;DHT22;2427;50.934;6.776;2023-02-01T07:23:29;5.20;1.00
4826;DHT22;2427;50.934;6.776;2023-02-01T07:25:56;5.20;1.00
4826;DHT22;2427;50.934;6.776;2023-02-01T07:28:22;5.20;1.00
4826;DHT22;2427;50.934;6.776;2023-02-01T07:30:48;5.20;1.00
4826;DHT22;2427;50.934;6.776;2023-02-01T07:33:18;5.20;1.00
4826;DHT22;2427;50.934;6.776;2023-02-01T07:35:45;5.20;1.00
4826;DHT22;2427;50.934;6.776;2023-02-01T07:38:11;5.20;1.00
4826;DHT22;2427;50.934;6.776;2023-02-01T07:40:36;5.20;1.00
4826;DHT22;2427;50.934;6.776;2023-02-01T07:43:02;5.30;1.00
4826;DHT22;2427;50.934;6.776;2023-02-01T07:45:27;5.30;1.00
4826;DHT22;2427;50.934;6.776;2023-02-01T07:47:53;5.30;1.00
4826;DHT22;2427;50.934;6.776;2023-02-01T07:50:19;5.30;1.00
4826;DHT22;2427;50.934;6.776;2023-02-01T07:52:44;5.30;1.00
4826;DHT22;2427;50.934;6.776;2023-02-01T07:55:10;5.30;1.00
4826;DHT22;2427;50.934;6.776;2023-02-01T07:57:35;5.30;1.00
4826;DHT22;2427;50.934;6.776;2023-02-01T08:00:01;5.30;1.00
4826;DHT22;2427;50.934;6.776;2023-02-01T08:02:46;5.40;1.00
4826;DHT22;2427;50.934;6.776;2023-02-01T08:05:11;5.30;1.00
4826;DHT22;2427;50.934;6.776;2023-02-01T08:07:37;5.30;1.00
4826;DHT22;2427;50.934;6.776;2023-02-01T08:10:02;5.30;1.00
4826;DHT22;2427;50.934;6.776;2023-02-01T08:12:30;5.30;1.00
4826;DHT22;2427;50.934;6.776;2023-02-01T08:14:56;5.30;1.00
4826;DHT22;2427;50.934;6.776;2023-02-01T08:17:21;5.30;1.00
4826;DHT22;2427;50.934;6.776;2023-02-01T08:19:47;5.30;1.00
4826;DHT22;2427;50.934;6.776;2023-02-01T08:22:13;5.30;1.00
4826;DHT22;2427;50.934;6.776;2023-02-01T08:24:38;5.30;1.00
4826;DHT22;2427;50.934;6.776;2023-02-01T08:27:05;5.30;1.00
4826;DHT22;2427;50.934;6.776;2023-02-01T08:29:31;5.30;1.00
4826;DHT22;2427;50.934;6.776;2023-02-01T08:31:57;5.30;1.00
4826;DHT22;2427;50.934;6.776;2023-02-01T08:34:22;5.30;1.00
4826;DHT22;2427;50.934;6.776;2023-02-01T08:36:48;5.30;1.00
4826;DHT22;2427;50.934;6.776;2023-02-01T08:39:14;5.40;1.00
4826;DHT22;2427;50.934;6.776;2023-02-01T08:41:39;5.40;1.00
4826;DHT22;2427;50.934;6.776;2023-02-01T08:44:07;5.50;1.00
4826;DHT22;2427;50.934;6.776;2023-02-01T08:46:32;5.50;1.00
4826;DHT22;2427;50.934;6.776;2023-02-01T08:48:59;5.60;99.90
4826;DHT22;2427;50.934;6.776;2023-02-01T08:51:25;5.60;99.90
4826;DHT22;2427;50.934;6.776;2023-02-01T08:53:51;5.70;99.90
4826;DHT22;2427;50.934;6.776;2023-02-01T08:56:18;5.70;99.90
4826;DHT22;2427;50.934;6.776;2023-02-01T08:58:44;5.70;99.90
4826;DHT22;2427;50.934;6.776;2023-02-01T09:01:13;5.70;99.90
4826;DHT22;2427;50.934;6.776;2023-02-01T09:03:39;5.80;99.90
4826;DHT22;2427;50.934;6.776;2023-02-01T09:06:07;5.90;99.90
4826;DHT22;2427;50.934;6.776;2023-02-01T09:08:34;5.90;1.00
4826;DHT22;2427;50.934;6.776;2023-02-01T09:11:08;5.90;99.90
4826;DHT22;2427;50.934;6.776;2023-02-01T09:13:34;6.00;99.90
4826;DHT22;2427;50.934;6.776;2023-02-01T09:16:00;6.10;99.90
4826;DHT22;2427;50.934;6.776;2023-02-01T09:18:26;6.20;1.00
4826;DHT22;2427;50.934;6.776;2023-02-01T09:20:52;6.20;1.00
4826;DHT22;2427;50.934;6.776;2023-02-01T09:23:17;6.30;1.00
4826;DHT22;2427;50.934;6.776;2023-02-01T09:25:45;6.30;1.00
4826;DHT22;2427;50.934;6.776;2023-02-01T09:28:11;6.30;1.00
4826;DHT22;2427;50.934;6.776;2023-02-01T09:30:37;6.20;1.00
4826;DHT22;2427;50.934;6.776;2023-02-01T09:33:03;6.20;1.00
4826;DHT22;2427;50.934;6.776;2023-02-01T09:35:29;6.20;1.00
4826;DHT22;2427;50.934;6.776;2023-02-01T09:37:55;6.20;1.00
4826;DHT22;2427;50.934;6.776;2023-02-01T09:40:20;6.30;1.00
4826;DHT22;2427;50.934;6.776;2023-02-01T09:47:58;6.40;1.00
4826;DHT22;2427;50.934;6.776;2023-02-01T09:50:37;6.40;1.00
4826;DHT22;2427;50.934;6.776;2023-02-01T09:55:42;6.50;1.00
4826;DHT22;2427;50.934;6.776;2023-02-01T09:58:19;6.50;1.00
4826;DHT22;2427;50.934;6.776;2023-02-01T10:00:53;6.40;1.00
4826;DHT22;2427;50.934;6.776;2023-02-01T10:03:19;6.40;1.00
4826;DHT22;2427;50.934;6.776;2023-02-01T10:06:14;6.30;1.00
4826;DHT22;2427;50.934;6.776;2023-02-01T10:16:54;6.80;99.90
4826;DHT22;2427;50.934;6.776;2023-02-01T10:19:48;6.80;99.90
4826;DHT22;2427;50.934;6.776;2023-02-01T10:22:37;7.00;99.90
4826;DHT22;2427;50.934;6.776;2023-02-01T10:27:45;7.50;99.90
4826;DHT22;2427;50.934;6.776;2023-02-01T10:30:24;7.60;99.90
4826;DHT22;2427;50.934;6.776;2023-02-01T10:35:46;7.70;99.90
4826;DHT22;2427;50.934;6.776;2023-02-01T10:38:25;7.60;99.90
4826;DHT22;2427;50.934;6.776;2023-02-01T10:40:53;7.60;99.90
4826;DHT22;2427;50.934;6.776;2023-02-01T10:43:20;7.60;99.90
4826;DHT22;2427;50.934;6.776;2023-02-01T10:45:46;7.50;99.90
4826;DHT22;2427;50.934;6.776;2023-02-01T10:48:12;7.60;99.90
4826;DHT22;2427;50.934;6.776;2023-02-01T10:50:51;7.60;99.90
4826;DHT22;2427;50.934;6.776;2023-02-01T10:53:24;7.80;93.80
4826;DHT22;2427;50.934;6.776;2023-02-01T10:55:54;7.90;72.20
4826;DHT22;2427;50.934;6.776;2023-02-01T10:58:31;7.80;57.90
4826;DHT22;2427;50.934;6.776;2023-02-01T11:01:03;7.80;33.70
4826;DHT22;2427;50.934;6.776;2023-02-01T11:03:44;7.70;74.00
4826;DHT22;2427;50.934;6.776;2023-02-01T11:11:55;7.70;50.60
4826;DHT22;2427;50.934;6.776;2023-02-01T11:19:17;7.50;54.90
4826;DHT22;2427;50.934;6.776;2023-02-01T11:21:44;7.30;99.90
4826;DHT22;2427;50.934;6.776;2023-02-01T11:24:22;7.30;99.90
4826;DHT22;2427;50.934;6.776;2023-02-01T11:26:49;7.30;99.90
4826;DHT22;2427;50.934;6.776;2023-02-01T11:29:18;7.30;99.90
4826;DHT22;2427;50.934;6.776;2023-02-01T11:31:48;7.50;99.90
4826;DHT22;2427;50.934;6.776;2023-02-01T11:34:14;7.60;91.40
4826;DHT22;2427;50.934;6.776;2023-02-01T11:36:41;7.60;92.90
4826;DHT22;2427;50.934;6.776;2023-02-01T11:42:03;7.70;85.10
4826;DHT22;2427;50.934;6.776;2023-02-01T11:44:34;7.50;16.60
4826;DHT22;2427;50.934;6.776;2023-02-01T11:49:44;7.40;96.60
4826;DHT22;2427;50.934;6.776;2023-02-01T11:52:12;7.30;21.00
4826;DHT22;2427;50.934;6.776;2023-02-01T12:25:57;7.40;36.90
4826;DHT22;2427;50.934;6.776;2023-02-01T12:36:52;7.40;4.20
4826;DHT22;2427;50.934;6.776;2023-02-01T12:39:31;7.50;21.00
4826;DHT22;2427;50.934;6.776;2023-02-01T12:47:19;7.60;1.00
4826;DHT22;2427;50.934;6.776;2023-02-01T12:49:52;7.60;1.00
4826;DHT22;2427;50.934;6.776;2023-02-01T12:52:33;7.50;1.00
4826;DHT22;2427;50.934;6.776;2023-02-01T12:55:19;7.60;6.90
4826;DHT22;2427;50.934;6.776;2023-02-01T12:57:53;7.50;1.00
4826;DHT22;2427;50.934;6.776;2023-02-01T13:00:39;7.40;3.20
4826;DHT22;2427;50.934;6.776;2023-02-01T13:06:16;7.30;47.90
4826;DHT22;2427;50.934;6.776;2023-02-01T13:11:39;7.30;51.00
4826;DHT22;2427;50.934;6.776;2023-02-01T13:16:35;7.30;65.60
4826;DHT22;2427;50.934;6.776;2023-02-01T13:21:51;7.30;52.40
4826;DHT22;2427;50.934;6.776;2023-02-01T13:26:55;7.40;82.50
4826;DHT22;2427;50.934;6.776;2023-02-01T13:29:23;7.40;97.40
4826;DHT22;2427;50.934;6.776;2023-02-01T13:31:58;7.30;99.90
4826;DHT22;2427;50.934;6.776;2023-02-01T13:43:30;7.20;99.90
4826;DHT22;2427;50.934;6.776;2023-02-01T13:46:04;7.20;99.90
4826;DHT22;2427;50.934;6.776;2023-02-01T13:48:50;7.20;99.90
4826;DHT22;2427;50.934;6.776;2023-02-01T13:51:34;7.10;99.90
4826;DHT22;2427;50.934;6.776;2023-02-01T13:54:01;7.20;99.90
4826;DHT22;2427;50.934;6.776;2023-02-01T13:56:27;7.20;99.90
4826;DHT22;2427;50.934;6.776;2023-02-01T13:58:53;7.30;99.90
4826;DHT22;2427;50.934;6.776;2023-02-01T14:03:48;7.30;99.90
4826;DHT22;2427;50.934;6.776;2023-02-01T14:08:43;7.40;99.90
4826;DHT22;2427;50.934;6.776;2023-02-01T14:11:33;7.40;99.90
4826;DHT22;2427;50.934;6.776;2023-02-01T14:21:49;7.50;61.70
4826;DHT22;2427;50.934;6.776;2023-02-01T14:26:49;7.50;17.60
4826;DHT22;2427;50.934;6.776;2023-02-01T14:32:24;7.60;1.00
4826;DHT22;2427;50.934;6.776;2023-02-01T14:34:55;7.60;1.00
4826;DHT22;2427;50.934;6.776;2023-02-01T14:39:59;7.60;1.00
4826;DHT22;2427;50.934;6.776;2023-02-01T14:42:39;7.70;1.00
4826;DHT22;2427;50.934;6.776;2023-02-01T14:47:47;7.70;1.00
4826;DHT22;2427;50.934;6.776;2023-02-01T15:06:38;7.80;1.00
4826;DHT22;2427;50.934;6.776;2023-02-01T15:12:02;7.90;1.00
4826;DHT22;2427;50.934;6.776;2023-02-01T15:14:34;7.90;1.00
4826;DHT22;2427;50.934;6.776;2023-02-01T15:17:01;7.80;1.00
4826;DHT22;2427;50.934;6.776;2023-02-01T15:19:28;7.80;1.00
4826;DHT22;2427;50.934;6.776;2023-02-01T15:21:56;7.80;1.00
4826;DHT22;2427;50.934;6.776;2023-02-01T15:24:27;7.80;1.00
4826;DHT22;2427;50.934;6.776;2023-02-01T15:26:54;7.80;1.00
4826;DHT22;2427;50.934;6.776;2023-02-01T15:29:22;7.80;1.00
4826;DHT22;2427;50.934;6.776;2023-02-01T15:31:50;7.80;1.00
4826;DHT22;2427;50.934;6.776;2023-02-01T15:34:16;7.80;1.00
4826;DHT22;2427;50.934;6.776;2023-02-01T15:36:43;7.80;1.00
4826;DHT22;2427;50.934;6.776;2023-02-01T15:39:23;7.80;1.00
4826;DHT22;2427;50.934;6.776;2023-02-01T15:41:56;7.70;1.00
4826;DHT22;2427;50.934;6.776;2023-02-01T15:44:40;7.70;1.00
4826;DHT22;2427;50.934;6.776;2023-02-01T15:47:18;7.70;1.00
4826;DHT22;2427;50.934;6.776;2023-02-01T15:49:47;7.70;1.00
4826;DHT22;2427;50.934;6.776;2023-02-01T15:54:59;7.80;1.00
4826;DHT22;2427;50.934;6.776;2023-02-01T15:57:29;7.80;1.00
4826;DHT22;2427;50.934;6.776;2023-02-01T15:59:58;7.80;1.00
4826;DHT22;2427;50.934;6.776;2023-02-01T16:02:33;7.80;1.00
4826;DHT22;2427;50.934;6.776;2023-02-01T16:05:01;7.70;1.00
4826;DHT22;2427;50.934;6.776;2023-02-01T16:07:30;7.70;87.60
4826;DHT22;2427;50.934;6.776;2023-02-01T16:09:58;7.70;99.90
4826;DHT22;2427;50.934;6.776;2023-02-01T16:15:06;7.50;99.90
4826;DHT22;2427;50.934;6.776;2023-02-01T16:17:32;7.50;1.00
4826;DHT22;2427;50.934;6.776;2023-02-01T16:19:58;7.40;1.00
4826;DHT22;2427;50.934;6.776;2023-02-01T16:22:24;7.30;1.00
4826;DHT22;2427;50.934;6.776;2023-02-01T16:24:50;7.20;99.90
4826;DHT22;2427;50.934;6.776;2023-02-01T16:27:16;7.10;99.90
4826;DHT22;2427;50.934;6.776;2023-02-01T16:29:41;6.90;1.00
4826;DHT22;2427;50.934;6.776;2023-02-01T16:32:16;6.80;98.30
4826;DHT22;2427;50.934;6.776;2023-02-01T16:34:43;6.70;99.90
4826;DHT22;2427;50.934;6.776;2023-02-01T16:37:14;6.60;99.90
4826;DHT22;2427;50.934;6.776;2023-02-01T16:39:41;6.60;99.90
4826;DHT22;2427;50.934;6.776;2023-02-01T16:42:14;6.50;1.00
4826;DHT22;2427;50.934;6.776;2023-02-01T16:44:40;6.40;1.00
4826;DHT22;2427;50.934;6.776;2023-02-01T16:47:16;6.30;99.90
4826;DHT22;2427;50.934;6.776;2023-02-01T16:49:43;6.30;99.90
4826;DHT22;2427;50.934;6.776;2023-02-01T16:52:18;6.20;1.00
4826;DHT22;2427;50.934;6.776;2023-02-01T16:54:44;6.20;1.00
4826;DHT22;2427;50.934;6.776;2023-02-01T16:57:14;6.20;1.00
4826;DHT22;2427;50.934;6.776;2023-02-01T16:59:40;6.20;99.90
4826;DHT22;2427;50.934;6.776;2023-02-01T17:02:11;6.20;1.00
4826;DHT22;2427;50.934;6.776;2023-02-01T17:04:37;6.30;99.90
4826;DHT22;2427;50.934;6.776;2023-02-01T17:07:02;6.20;99.90
4826;DHT22;2427;50.934;6.776;2023-02-01T17:09:35;6.20;1.00
4826;DHT22;2427;50.934;6.776;2023-02-01T17:12:01;6.30;99.90
4826;DHT22;2427;50.934;6.776;2023-02-01T17:14:26;6.20;99.90
4826;DHT22;2427;50.934;6.776;2023-02-01T17:16:52;6.20;1.00
4826;DHT22;2427;50.934;6.776;2023-02-01T17:19:22;6.20;1.00
4826;DHT22;2427;50.934;6.776;2023-02-01T17:21:50;6.20;1.00
4826;DHT22;2427;50.934;6.776;2023-02-01T17:24:22;6.20;6.30
4826;DHT22;2427;50.934;6.776;2023-02-01T17:26:47;6.20;99.90
4826;DHT22;2427;50.934;6.776;2023-02-01T17:29:16;6.20;22.40
4826;DHT22;2427;50.934;6.776;2023-02-01T17:31:44;6.20;91.10
4826;DHT22;2427;50.934;6.776;2023-02-01T17:34:11;6.20;1.00
4826;DHT22;2427;50.934;6.776;2023-02-01T17:36:40;6.20;1.00
4826;DHT22;2427;50.934;6.776;2023-02-01T17:39:06;6.20;1.00
4826;DHT22;2427;50.934;6.776;2023-02-01T17:41:31;6.20;1.00
4826;DHT22;2427;50.934;6.776;2023-02-01T17:43:57;6.20;1.00
4826;DHT22;2427;50.934;6.776;2023-02-01T17:46:23;6.20;99.90
4826;DHT22;2427;50.934;6.776;2023-02-01T17:48:52;6.20;99.90
4826;DHT22;2427;50.934;6.776;2023-02-01T17:51:20;6.30;99.90
4826;DHT22;2427;50.934;6.776;2023-02-01T17:53:46;6.30;1.00
4826;DHT22;2427;50.934;6.776;2023-02-01T17:56:17;6.30;1.00
4826;DHT22;2427;50.934;6.776;2023-02-01T17:58:44;6.40;1.00
4826;DHT22;2427;50.934;6.776;2023-02-01T18:01:22;6.50;99.90
4826;DHT22;2427;50.934;6.776;2023-02-01T18:03:48;6.40;99.90
4826;DHT22;2427;50.934;6.776;2023-02-01T18:06:22;6.50;61.40
4826;DHT22;2427;50.934;6.776;2023-02-01T18:08:48;6.50;96.70
4826;DHT22;2427;50.934;6.776;2023-02-01T18:11:17;6.50;99.90
4826;DHT22;2427;50.934;6.776;2023-02-01T18:13:43;6.50;1.00
4826;DHT22;2427;50.934;6.776;2023-02-01T18:16:19;6.50;1.00
4826;DHT22;2427;50.934;6.776;2023-02-01T18:18:46;6.60;1.00
4826;DHT22;2427;50.934;6.776;2023-02-01T18:21:13;6.60;1.00
4826;DHT22;2427;50.934;6.776;2023-02-01T18:23:38;6.70;1.00
4826;DHT22;2427;50.934;6.776;2023-02-01T18:26:04;6.70;99.90
4826;DHT22;2427;50.934;6.776;2023-02-01T18:28:30;6.70;99.90
4826;DHT22;2427;50.934;6.776;2023-02-01T18:30:55;6.80;99.90
4826;DHT22;2427;50.934;6.776;2023-02-01T18:33:21;6.80;99.90
4826;DHT22;2427;50.934;6.776;2023-02-01T18:35:47;6.80;99.90
4826;DHT22;2427;50.934;6.776;2023-02-01T18:38:14;6.80;99.90
4826;DHT22;2427;50.934;6.776;2023-02-01T18:40:49;6.80;99.90
4826;DHT22;2427;50.934;6.776;2023-02-01T18:43:15;6.80;99.90
4826;DHT22;2427;50.934;6.776;2023-02-01T18:45:43;6.70;99.90
4826;DHT22;2427;50.934;6.776;2023-02-01T18:48:10;6.80;99.90
4826;DHT22;2427;50.934;6.776;2023-02-01T18:50:38;6.80;99.90
4826;DHT22;2427;50.934;6.776;2023-02-01T18:53:12;6.90;1.00
4826;DHT22;2427;50.934;6.776;2023-02-01T18:55:38;6.90;1.00
4826;DHT22;2427;50.934;6.776;2023-02-01T18:58:04;6.90;1.00
4826;DHT22;2427;50.934;6.776;2023-02-01T19:00:34;6.90;1.00
4826;DHT22;2427;50.934;6.776;2023-02-01T19:03:00;7.00;1.00
4826;DHT22;2427;50.934;6.776;2023-02-01T19:05:26;6.90;1.00
4826;DHT22;2427;50.934;6.776;2023-02-01T19:07:52;6.90;1.00
4826;DHT22;2427;50.934;6.776;2023-02-01T19:10:22;6.90;1.00
4826;DHT22;2427;50.934;6.776;2023-02-01T19:12:51;7.00;1.00
4826;DHT22;2427;50.934;6.776;2023-02-01T19:15:18;7.00;1.00
4826;DHT22;2427;50.934;6.776;2023-02-01T19:17:46;7.00;1.00
4826;DHT22;2427;50.934;6.776;2023-02-01T19:20:17;7.00;1.00
4826;DHT22;2427;50.934;6.776;2023-02-01T19:22:44;7.00;1.00
4826;DHT22;2427;50.934;6.776;2023-02-01T19:25:15;7.00;1.00
4826;DHT22;2427;50.934;6.776;2023-02-01T19:27:41;7.00;1.00
4826;DHT22;2427;50.934;6.776;2023-02-01T19:30:09;7.00;1.00
4826;DHT22;2427;50.934;6.776;2023-02-01T19:32:36;6.90;1.00
4826;DHT22;2427;50.934;6.776;2023-02-01T19:35:02;7.00;1.00
4826;DHT22;2427;50.934;6.776;2023-02-01T19:37:28;7.00;1.00
4826;DHT22;2427;50.934;6.776;2023-02-01T19:39:53;7.00;1.00
4826;DHT22;2427;50.934;6.776;2023-02-01T19:42:19;7.00;1.00
4826;DHT22;2427;50.934;6.776;2023-02-01T19:44:44;7.00;1.00
4826;DHT22;2427;50.934;6.776;2023-02-01T19:47:10;7.00;1.00
4826;DHT22;2427;50.934;6.776;2023-02-01T19:49:36;6.90;1.00
4826;DHT22;2427;50.934;6.776;2023-02-01T19:52:02;6.90;1.00
4826;DHT22;2427;50.934;6.776;2023-02-01T19:54:27;6.90;1.00
4826;DHT22;2427;50.934;6.776;2023-02-01T19:56:53;6.90;1.00
4826;DHT22;2427;50.934;6.776;2023-02-01T19:59:19;7.00;1.00